createdAt,value
2023-03-26T00:02:30.327Z,67.47
2023-03-26T00:04:58.690Z,68.07
2023-03-26T00:07:28.781Z,68.07
2023-03-26T00:09:58.846Z,67.72
2023-03-26T00:12:27.087Z,68.15
2023-03-26T00:14:55.603Z,68.05
2023-03-26T00:17:25.034Z,68.18
2023-03-26T00:19:54.129Z,67.85
2023-03-26T00:22:24.404Z,71.33
2023-03-26T00:24:53.058Z,75.92
2023-03-26T00:27:21.625Z,79.27
2023-03-26T00:29:49.935Z,83.31
2023-03-26T00:32:18.418Z,84.69
2023-03-26T00:34:48.299Z,84.65
2023-03-26T00:37:16.635Z,84.96
2023-03-26T00:39:45.053Z,83.55
2023-03-26T00:42:15.608Z,82.01
2023-03-26T00:44:43.859Z,82.49
2023-03-26T00:47:12.016Z,85.79
2023-03-26T00:49:40.455Z,87.65
2023-03-26T00:52:09.482Z,88.99
2023-03-26T00:54:38.009Z,92.69
2023-03-26T00:57:07.168Z,94.49
2023-03-26T00:59:36.287Z,97.39
2023-03-26T01:02:04.965Z,100.00
2023-03-26T01:04:35.342Z,100.00
2023-03-26T01:07:11.051Z,100.00
2023-03-26T01:09:46.572Z,100.00
2023-03-26T01:12:17.666Z,100.00
2023-03-26T01:14:48.609Z,100.00
2023-03-26T01:17:18.595Z,100.00
2023-03-26T01:20:13.783Z,100.00
2023-03-26T01:22:49.865Z,100.00
2023-03-26T01:25:19.001Z,100.00
2023-03-26T01:27:55.075Z,100.00
2023-03-26T01:30:42.933Z,100.00
2023-03-26T01:33:31.006Z,100.00
2023-03-26T01:36:41.935Z,100.00
2023-03-26T01:39:39.617Z,100.00
2023-03-26T01:42:14.934Z,100.00
2023-03-26T01:44:57.896Z,100.00
2023-03-26T01:47:26.682Z,100.00
2023-03-26T01:49:54.880Z,100.00
2023-03-26T01:52:26.664Z,100.00
2023-03-26T01:54:56.327Z,100.00
2023-03-26T01:57:37.342Z,100.00
2023-03-26T02:00:18.300Z,100.00
2023-03-26T02:02:55.615Z,100.00
2023-03-26T02:05:33.980Z,100.00
2023-03-26T02:08:17.261Z,100.00
2023-03-26T02:10:49.341Z,100.00
2023-03-26T02:13:18.081Z,100.00
2023-03-26T02:16:04.080Z,100.00
2023-03-26T02:18:39.393Z,100.00
2023-03-26T02:21:20.968Z,100.00
2023-03-26T02:24:04.399Z,100.00
2023-03-26T02:26:37.936Z,100.00
2023-03-26T02:29:21.037Z,100.00
2023-03-26T02:31:51.104Z,100.00
2023-03-26T02:34:19.527Z,100.00
2023-03-26T02:36:52.440Z,100.00
2023-03-26T02:39:21.635Z,100.00
2023-03-26T02:41:58.166Z,100.00
2023-03-26T02:44:28.170Z,100.00
2023-03-26T02:46:59.740Z,100.00
2023-03-26T02:49:48.007Z,100.00
2023-03-26T02:52:35.003Z,100.00
2023-03-26T02:55:04.519Z,100.00
2023-03-26T02:57:33.801Z,100.00
2023-03-26T03:00:23.144Z,100.00
2023-03-26T03:03:10.472Z,100.00
2023-03-26T03:06:05.404Z,100.00
2023-03-26T03:08:54.839Z,100.00
2023-03-26T03:11:49.060Z,100.00
2023-03-26T03:14:17.712Z,100.00
2023-03-26T03:16:45.989Z,100.00
2023-03-26T03:19:14.623Z,100.00
2023-03-26T03:21:43.466Z,100.00
2023-03-26T03:24:11.950Z,100.00
2023-03-26T03:26:48.261Z,100.00
2023-03-26T03:29:48.253Z,100.00
2023-03-26T03:32:43.311Z,100.00
2023-03-26T03:35:12.407Z,100.00
